Time;durP1;ratioP1;P1;durP2;ratioP2;P2;SDS_P1;SDS_P2;PMS_P1;PMS_P2;Temp;Humidity;BMP_temperature;BMP_pressure;BME280_temperature;BME280_humidity;BME280_pressure;Samples;Min_cycle;Max_cycle;Signal;HPM_P1;HPM_P2
2021/08/12 00:00:24;;;;;;;;;19.50;19.50;;;;;22.84;53.97;101562.91;4955454;28;45378;-79
2021/08/12 00:02:50;;;;;;;;;19.75;17.25;;;;;22.83;54.14;101559.34;4913060;28;47898;-79
2021/08/12 00:05:19;;;;;;;;;15.25;15.25;;;;;22.82;54.04;101565.63;4943281;28;45280;-78
2021/08/12 00:07:45;;;;;;;;;14.00;13.00;;;;;22.80;54.52;101563.94;4943375;28;45450;-78
2021/08/12 00:10:10;;;;;;;;;13.25;13.00;;;;;22.75;54.65;101553.44;4940449;28;45649;-78
2021/08/12 00:12:36;;;;;;;;;14.00;13.75;;;;;22.74;54.81;101548.97;4940848;28;47227;-79
2021/08/12 00:15:07;;;;;;;;;15.75;15.75;;;;;22.73;54.59;101557.09;4943000;28;45361;-78
2021/08/12 00:17:32;;;;;;;;;18.25;17.75;;;;;22.76;54.94;101556.97;4939991;28;45612;-79
2021/08/12 00:20:00;;;;;;;;;14.00;14.00;;;;;22.71;54.67;101557.16;4942905;28;45372;-79
2021/08/12 00:22:26;;;;;;;;;16.00;16.00;;;;;22.71;55.21;101559.84;4942857;28;45499;-79
2021/08/12 00:25:05;;;;;;;;;18.25;16.75;;;;;22.66;55.47;101556.47;4941189;28;45394;-79
2021/08/12 00:27:33;;;;;;;;;16.75;16.00;;;;;22.66;55.46;101551.97;4942514;28;45278;-78
2021/08/12 00:30:01;;;;;;;;;19.00;16.75;;;;;22.63;55.21;101548.53;4942815;28;45336;-80
2021/08/12 00:32:28;;;;;;;;;13.75;12.75;;;;;22.61;55.20;101550.41;4942207;28;46118;-79
2021/08/12 00:34:56;;;;;;;;;17.25;15.50;;;;;22.59;55.50;101544.25;4942736;28;45294;-78
2021/08/12 00:37:29;;;;;;;;;15.67;15.33;;;;;22.54;55.69;101540.88;4942346;28;45410;-79
2021/08/12 00:39:57;;;;;;;;;12.67;12.33;;;;;22.51;55.62;101535.63;4942373;28;45240;-79
2021/08/12 00:42:25;;;;;;;;;13.75;13.75;;;;;22.52;56.27;101554.34;4940810;28;47977;-78
2021/08/12 00:44:55;;;;;;;;;14.33;14.33;;;;;22.49;56.16;101553.63;4940967;28;45838;-78
2021/08/12 00:47:25;;;;;;;;;12.75;12.75;;;;;22.38;56.80;101552.22;4942112;28;45236;-79
2021/08/12 00:49:53;;;;;;;;;17.67;16.33;;;;;22.32;56.72;101544.44;4930203;28;45337;-79
2021/08/12 00:52:20;;;;;;;;;14.50;13.75;;;;;22.24;56.77;101542.06;4942090;28;45300;-79
2021/08/12 00:54:51;;;;;;;;;19.25;16.25;;;;;22.16;56.82;101528.03;4941809;28;45244;-79
2021/08/12 00:57:22;;;;;;;;;14.50;13.75;;;;;22.12;56.94;101533.59;4941889;28;45401;-78
2021/08/12 00:59:53;;;;;;;;;17.00;16.00;;;;;22.06;57.21;101529.34;4942743;28;45177;-78
2021/08/12 01:02:21;;;;;;;;;16.00;14.75;;;;;22.05;57.25;101540.09;4953560;28;45299;-78
2021/08/12 01:04:52;;;;;;;;;15.50;15.50;;;;;21.96;57.20;101533.31;4942867;28;45234;-78
2021/08/12 01:07:39;;;;;;;;;16.50;15.75;;;;;21.94;57.32;101537.84;4942031;28;45240;-79
2021/08/12 01:10:14;;;;;;;;;19.25;16.50;;;;;21.89;57.52;101530.00;4943548;28;45439;-78
2021/08/12 01:13:09;;;;;;;;;14.25;14.25;;;;;21.85;57.73;101535.53;4941539;28;45416;-79
2021/08/12 01:15:40;;;;;;;;;15.75;15.75;;;;;21.80;57.62;101541.06;4941313;28;45302;-78
2021/08/12 01:18:16;;;;;;;;;18.00;16.00;;;;;21.77;57.66;101539.38;4940381;28;45429;-79
2021/08/12 01:20:52;;;;;;;;;15.00;13.50;;;;;21.68;58.11;101533.47;4942981;28;45505;-79
2021/08/12 01:23:24;;;;;;;;;14.75;13.50;;;;;21.63;57.77;101532.78;4941509;28;45439;-79
2021/08/12 01:25:53;;;;;;;;;15.00;13.25;;;;;21.58;58.06;101541.84;4941115;28;45639;-79
2021/08/12 01:28:28;;;;;;;;;12.75;11.00;;;;;21.54;58.12;101533.97;4940227;28;45279;-78
2021/08/12 01:31:01;;;;;;;;;16.50;13.50;;;;;21.52;57.96;101547.44;4942354;28;45237;-79
2021/08/12 01:33:40;;;;;;;;;13.00;11.50;;;;;21.47;58.37;101549.41;4941196;28;45763;-79
2021/08/12 01:36:10;;;;;;;;;12.75;12.50;;;;;21.43;58.13;101546.91;4942176;28;45224;-78
2021/08/12 01:38:40;;;;;;;;;14.00;14.00;;;;;21.35;58.47;101542.66;4929181;28;45654;-79
2021/08/12 01:41:08;;;;;;;;;14.00;13.25;;;;;21.32;58.71;101549.94;4941818;28;45545;-79
2021/08/12 01:43:36;;;;;;;;;15.50;14.00;;;;;21.27;58.78;101558.13;4939950;28;48410;-78
2021/08/12 01:46:02;;;;;;;;;14.00;14.00;;;;;21.22;58.75;101551.19;4942014;28;45406;-78
2021/08/12 01:48:35;;;;;;;;;14.00;13.25;;;;;21.19;58.75;101545.94;4939805;28;45442;-79
2021/08/12 01:51:10;;;;;;;;;12.00;12.00;;;;;21.16;58.62;101544.22;4940448;28;45408;-78
2021/08/12 01:53:41;;;;;;;;;13.75;13.25;;;;;21.07;58.82;101536.53;4941125;28;45422;-79
2021/08/12 01:56:17;;;;;;;;;16.75;13.00;;;;;21.02;59.03;101543.84;4940798;28;46027;-79
2021/08/12 01:58:51;;;;;;;;;13.25;11.75;;;;;20.97;58.91;101529.75;4939829;28;45252;-79
2021/08/12 02:01:21;;;;;;;;;12.25;12.25;;;;;20.95;59.29;101537.81;4942416;28;45300;-79
2021/08/12 02:03:50;;;;;;;;;11.00;11.00;;;;;20.91;59.44;101547.78;4939588;28;47491;-78
2021/08/12 02:06:19;;;;;;;;;11.50;10.50;;;;;20.83;59.40;101538.25;4941874;28;45248;-79
2021/08/12 02:08:50;;;;;;;;;11.25;11.25;;;;;20.83;59.76;101548.97;4923717;28;45434;-78
2021/08/12 02:11:20;;;;;;;;;15.75;13.00;;;;;20.80;60.23;101549.06;4941717;28;45305;-79
2021/08/12 02:13:48;;;;;;;;;10.00;10.00;;;;;20.73;59.77;101542.16;4940840;28;46876;-79
2021/08/12 02:16:19;;;;;;;;;10.75;10.75;;;;;20.71;59.86;101544.88;4945178;28;45275;-78
2021/08/12 02:18:46;;;;;;;;;12.25;11.00;;;;;20.70;59.93;101532.44;4925601;28;45556;-79
2021/08/12 02:21:22;;;;;;;;;14.25;13.50;;;;;20.65;60.46;101531.72;4945041;28;45340;-78
2021/08/12 02:24:09;;;;;;;;;14.25;12.75;;;;;20.69;60.64;101541.41;4943858;28;45294;-79
2021/08/12 02:26:51;;;;;;;;;14.25;14.25;;;;;20.63;60.39;101530.88;4944491;28;45255;-78
2021/08/12 02:29:23;;;;;;;;;14.25;13.75;;;;;20.60;60.53;101528.31;4944273;28;45433;-78
2021/08/12 02:31:53;;;;;;;;;13.25;13.25;;;;;20.56;60.66;101534.69;4944433;28;45464;-78
2021/08/12 02:34:27;;;;;;;;;13.00;11.75;;;;;20.54;60.67;101540.09;4944109;28;45441;-78
2021/08/12 02:36:57;;;;;;;;;10.25;9.25;;;;;20.49;60.49;101539.31;4934144;28;45544;-79
2021/08/12 02:39:29;;;;;;;;;11.75;11.50;;;;;20.48;60.62;101542.94;4943970;28;45281;-78
2021/08/12 02:42:01;;;;;;;;;12.75;11.25;;;;;20.44;60.89;101552.84;4943954;28;45296;-78
2021/08/12 02:44:30;;;;;;;;;13.00;12.75;;;;;20.41;60.79;101546.72;4943627;28;45554;-78
2021/08/12 02:47:02;;;;;;;;;13.00;13.00;;;;;20.37;60.73;101542.38;4942946;28;45199;-78
2021/08/12 02:49:29;;;;;;;;;11.50;9.50;;;;;20.34;60.75;101531.78;4943740;28;45363;-78
2021/08/12 02:52:01;;;;;;;;;13.75;11.75;;;;;20.35;60.67;101533.53;4944337;28;45230;-79
2021/08/12 02:54:30;;;;;;;;;13.75;12.00;;;;;20.34;61.00;101531.78;4943531;28;45446;-78
2021/08/12 02:56:57;;;;;;;;;15.50;14.50;;;;;20.36;60.89;101535.28;4944135;28;45323;-79
2021/08/12 02:59:28;;;;;;;;;13.50;12.75;;;;;20.37;60.84;101545.06;4942342;28;45448;-78
2021/08/12 03:01:57;;;;;;;;;12.00;11.00;;;;;20.31;60.84;101542.56;4942084;28;45539;-79
2021/08/12 03:04:25;;;;;;;;;12.00;12.00;;;;;20.34;60.96;101558.53;4929680;28;47625;-78
2021/08/12 03:06:59;;;;;;;;;13.50;11.50;;;;;20.28;60.61;101543.53;4943772;28;45410;-78
2021/08/12 03:09:27;;;;;;;;;12.00;11.50;;;;;20.26;61.36;101554.31;4942294;28;45441;-78
2021/08/12 03:11:59;;;;;;;;;11.75;9.00;;;;;20.21;60.84;101529.50;4924830;28;45406;-78
2021/08/12 03:14:26;;;;;;;;;14.00;12.75;;;;;20.22;61.25;101533.06;4924412;28;46306;-78
2021/08/12 03:16:55;;;;;;;;;12.50;10.50;;;;;20.22;60.90;101533.91;4925064;28;45392;-78
2021/08/12 03:19:25;;;;;;;;;12.00;11.00;;;;;20.22;60.95;101541.06;4924299;28;45285;-78
2021/08/12 03:22:05;;;;;;;;;14.00;14.00;;;;;20.22;60.92;101544.63;4907463;28;45426;-78
2021/08/12 03:24:34;;;;;;;;;13.75;13.75;;;;;20.18;61.27;101542.06;4923437;28;45302;-78
2021/08/12 03:27:02;;;;;;;;;14.25;11.75;;;;;20.16;61.21;101539.47;4906760;28;45459;-78
2021/08/12 03:29:33;;;;;;;;;11.50;11.50;;;;;20.15;61.20;101536.84;4922862;28;45438;-78
2021/08/12 03:32:02;;;;;;;;;14.75;12.50;;;;;20.13;61.39;101533.31;4924929;28;45441;-78
2021/08/12 03:34:30;;;;;;;;;13.00;12.25;;;;;20.08;61.32;101536.16;4923848;28;45429;-78
2021/08/12 03:36:58;;;;;;;;;11.25;11.00;;;;;20.05;61.22;101529.09;4924345;28;45454;-78
2021/08/12 03:39:31;;;;;;;;;14.25;11.75;;;;;20.08;61.28;101540.63;4923900;28;45350;-78
2021/08/12 03:42:00;;;;;;;;;14.50;11.75;;;;;20.05;61.52;101539.81;4924902;28;45284;-78
2021/08/12 03:44:28;;;;;;;;;14.50;11.50;;;;;20.02;61.75;101522.97;4923402;28;46536;-78
2021/08/12 03:46:55;;;;;;;;;13.25;11.75;;;;;19.97;61.20;101523.13;4923538;28;45735;-78
2021/08/12 03:49:23;;;;;;;;;12.00;12.00;;;;;19.97;61.58;101524.94;4923478;28;45233;-78
2021/08/12 03:51:49;;;;;;;;;13.00;12.75;;;;;19.97;61.59;101523.13;4923471;28;45482;-78
2021/08/12 03:54:17;;;;;;;;;11.50;10.75;;;;;19.95;61.63;101518.75;4923333;28;45340;-78
2021/08/12 03:56:44;;;;;;;;;13.00;12.75;;;;;19.98;61.57;101526.66;4907267;28;45538;-80
2021/08/12 03:59:14;;;;;;;;;14.00;10.75;;;;;19.94;61.71;101516.97;4923682;28;45254;-78
2021/08/12 04:01:42;;;;;;;;;14.00;13.00;;;;;19.95;61.69;101519.63;4923277;28;45725;-79
2021/08/12 04:04:09;;;;;;;;;11.50;11.50;;;;;19.98;61.87;101518.66;4924999;28;45470;-78
2021/08/12 04:06:37;;;;;;;;;16.25;13.25;;;;;19.92;61.44;101510.81;4923733;28;45400;-78
2021/08/12 04:09:04;;;;;;;;;10.75;10.50;;;;;19.94;62.04;101511.63;4924189;28;45376;-78
2021/08/12 04:11:33;;;;;;;;;12.00;11.00;;;;;19.92;61.86;101511.69;4939597;28;45502;-78
2021/08/12 04:14:00;;;;;;;;;12.75;12.00;;;;;19.91;61.55;101501.03;4940901;28;45659;-78
2021/08/12 04:16:30;;;;;;;;;17.00;15.50;;;;;19.92;61.96;101502.81;4942919;28;45232;-78
2021/08/12 04:18:58;;;;;;;;;13.75;13.50;;;;;19.89;61.89;101502.88;4924382;28;45438;-78
2021/08/12 04:21:26;;;;;;;;;12.25;12.25;;;;;19.90;62.13;101502.84;4941126;28;45461;-77
2021/08/12 04:23:51;;;;;;;;;14.50;11.50;;;;;19.88;61.97;101502.00;4955382;28;45327;-78
2021/08/12 04:26:20;;;;;;;;;15.25;13.00;;;;;19.87;61.70;101497.59;4940602;28;45385;-78
2021/08/12 04:28:48;;;;;;;;;15.25;13.50;;;;;19.86;61.84;101497.63;4943293;28;45412;-77
2021/08/12 04:31:26;;;;;;;;;12.25;10.25;;;;;19.85;61.98;101490.53;4924609;28;45231;-78
2021/08/12 04:33:51;;;;;;;;;14.00;14.00;;;;;19.86;61.68;101487.84;4943010;28;46315;-78
2021/08/12 04:36:19;;;;;;;;;13.50;11.00;;;;;19.85;61.83;101487.88;4941567;28;45471;-78
2021/08/12 04:38:52;;;;;;;;;16.00;12.50;;;;;19.92;61.86;101500.13;4941445;28;45409;-78
2021/08/12 04:41:22;;;;;;;;;10.50;10.50;;;;;19.92;61.98;101500.13;4941836;28;45604;-78
2021/08/12 04:43:52;;;;;;;;;13.50;13.25;;;;;19.92;62.22;101497.47;4942853;28;46007;-78
2021/08/12 04:46:25;;;;;;;;;13.25;12.50;;;;;19.92;62.02;101501.00;4946133;28;45230;-78
2021/08/12 04:48:52;;;;;;;;;12.25;12.00;;;;;19.95;62.14;101500.03;4950237;28;45223;-78
2021/08/12 04:51:20;;;;;;;;;17.25;14.25;;;;;19.96;61.64;101502.63;4941709;28;45264;-78
2021/08/12 04:53:48;;;;;;;;;12.25;12.00;;;;;19.99;61.45;101501.66;4954813;28;45378;-78
2021/08/12 04:56:16;;;;;;;;;14.50;13.50;;;;;20.00;61.47;101498.97;4941664;28;45234;-78
2021/08/12 04:58:42;;;;;;;;;15.75;14.75;;;;;19.97;62.01;101493.72;4925497;28;45198;-78
2021/08/12 05:01:09;;;;;;;;;13.75;13.00;;;;;19.99;61.54;101488.31;4941797;28;45268;-78
2021/08/12 05:03:42;;;;;;;;;17.00;14.50;;;;;20.04;61.70;101494.38;4942788;28;46614;-79
2021/08/12 05:06:10;;;;;;;;;12.50;12.50;;;;;20.02;62.02;101497.13;4941836;28;45235;-78
2021/08/12 05:08:43;;;;;;;;;12.75;12.50;;;;;20.04;61.69;101489.03;4925142;28;45466;-78
2021/08/12 05:11:13;;;;;;;;;14.50;14.50;;;;;20.07;61.71;101499.63;4923997;28;45978;-79
2021/08/12 05:13:46;;;;;;;;;16.00;13.00;;;;;20.04;61.53;101495.25;4942614;28;45357;-78
2021/08/12 05:16:14;;;;;;;;;13.75;13.75;;;;;20.03;61.62;101490.84;4941447;28;45472;-78
2021/08/12 05:18:44;;;;;;;;;13.00;12.50;;;;;20.10;61.91;101493.31;4941398;28;45465;-78
2021/08/12 05:21:12;;;;;;;;;13.50;13.50;;;;;20.11;62.03;101501.31;4941618;28;45480;-78
2021/08/12 05:23:42;;;;;;;;;14.00;13.00;;;;;20.14;61.55;101500.34;4941641;28;45425;-78
2021/08/12 05:26:07;;;;;;;;;15.25;13.75;;;;;20.13;61.56;101494.13;4941222;28;45226;-78
2021/08/12 05:28:33;;;;;;;;;14.25;14.25;;;;;20.18;61.51;101501.97;4941937;28;45148;-78
2021/08/12 05:31:03;;;;;;;;;13.00;12.50;;;;;20.20;61.66;101497.47;4941507;28;45482;-79
2021/08/12 05:33:31;;;;;;;;;14.25;14.00;;;;;20.26;61.63;101511.53;4941566;28;46218;-78
2021/08/12 05:35:59;;;;;;;;;13.75;12.75;;;;;20.28;61.37;101517.69;4941094;28;45519;-79
2021/08/12 05:38:26;;;;;;;;;15.75;12.00;;;;;20.31;61.01;101508.69;4941888;28;45433;-78
2021/08/12 05:40:52;;;;;;;;;16.25;14.75;;;;;20.34;61.20;101524.66;4940013;28;45438;-78
2021/08/12 05:43:22;;;;;;;;;12.00;12.00;;;;;20.36;61.04;101519.25;4941197;28;45349;-79
2021/08/12 05:45:48;;;;;;;;;17.00;14.25;;;;;20.34;61.21;101521.97;4941489;28;45356;-79
2021/08/12 05:48:18;;;;;;;;;14.25;12.75;;;;;20.36;61.26;101522.78;4942326;28;45362;-77
2021/08/12 05:50:46;;;;;;;;;13.00;12.00;;;;;20.40;61.23;101528.94;4944847;28;45436;-78
2021/08/12 05:53:16;;;;;;;;;16.25;15.50;;;;;20.37;61.03;101515.63;4944677;28;46057;-78
2021/08/12 05:55:41;;;;;;;;;12.50;12.00;;;;;20.39;61.10;101527.16;4942914;28;45410;-77
2021/08/12 05:58:10;;;;;;;;;14.50;12.00;;;;;20.38;61.30;101515.59;4944719;28;45340;-79
2021/08/12 06:00:40;;;;;;;;;16.00;16.00;;;;;20.43;60.94;101518.13;4943437;28;45267;-78
2021/08/12 06:03:09;;;;;;;;;14.75;13.75;;;;;20.42;61.42;101506.56;4944580;28;46378;-76
2021/08/12 06:05:37;;;;;;;;;16.75;16.75;;;;;20.48;61.31;101518.84;4944589;28;45392;-78
2021/08/12 06:08:05;;;;;;;;;17.75;16.50;;;;;20.54;60.89;101529.38;4944423;28;45337;-77
2021/08/12 06:10:39;;;;;;;;;16.00;13.25;;;;;20.55;60.95;101524.91;4943860;28;45413;-78
2021/08/12 06:13:06;;;;;;;;;17.50;17.50;;;;;20.56;60.73;101519.50;4944203;28;46499;-77
2021/08/12 06:15:33;;;;;;;;;18.25;16.50;;;;;20.62;60.93;101513.94;4942654;28;45386;-76
2021/08/12 06:17:58;;;;;;;;;16.25;14.25;;;;;20.70;60.52;101525.28;4941499;28;45477;-79
2021/08/12 06:20:31;;;;;;;;;19.25;16.75;;;;;20.69;60.79;101520.00;4944023;28;45171;-77
2021/08/12 06:23:05;;;;;;;;;16.00;15.50;;;;;20.76;60.86;101526.00;4944165;28;45582;-77
2021/08/12 06:25:33;;;;;;;;;17.50;17.50;;;;;20.77;60.87;101530.41;4943701;28;45480;-77
2021/08/12 06:27:58;;;;;;;;;17.50;15.50;;;;;20.81;60.60;101522.22;4942638;28;45468;-76
2021/08/12 06:30:29;;;;;;;;;17.25;15.50;;;;;20.85;60.71;101510.50;4944243;28;45245;-76
2021/08/12 06:32:57;;;;;;;;;16.75;16.25;;;;;20.86;59.94;101516.72;4943859;28;45345;-77
2021/08/12 06:35:26;;;;;;;;;19.00;16.25;;;;;20.89;59.80;101535.34;4944080;28;45396;-78
2021/08/12 06:37:57;;;;;;;;;17.25;16.00;;;;;20.96;60.37;101533.38;4941959;28;45342;-77
2021/08/12 06:40:26;;;;;;;;;21.25;18.00;;;;;20.98;59.75;101528.81;4943759;28;45439;-78
2021/08/12 06:42:55;;;;;;;;;21.50;18.75;;;;;20.99;59.70;101525.22;4943593;28;45359;-78
2021/08/12 06:45:26;;;;;;;;;18.75;17.00;;;;;21.01;59.87;101532.28;4943717;28;45397;-79
2021/08/12 06:47:52;;;;;;;;;20.00;16.50;;;;;21.08;59.58;101538.28;4943540;28;45232;-78
2021/08/12 06:50:21;;;;;;;;;17.50;15.00;;;;;21.11;59.84;101539.03;4943670;28;45235;-79
2021/08/12 06:52:51;;;;;;;;;23.50;20.25;;;;;21.13;60.07;101544.34;4942075;28;48564;-78
2021/08/12 06:55:22;;;;;;;;;17.75;16.75;;;;;21.15;59.87;101538.00;4943669;28;45447;-80
2021/08/12 06:58:02;;;;;;;;;;;;;;;;;;;;;
2021/08/12 07:00:44;;;;;;;;;19.75;16.50;;;;;21.19;59.90;101533.41;4943906;28;72824;-78
2021/08/12 07:03:12;;;;;;;;;15.25;14.25;;;;;21.21;59.69;101538.72;4941955;28;48216;-77
2021/08/12 07:05:42;;;;;;;;;19.75;18.75;;;;;21.27;59.56;101541.19;4947353;28;45235;-77
2021/08/12 07:08:12;;;;;;;;;18.25;15.75;;;;;21.32;59.71;101536.53;4934254;28;45433;-78
2021/08/12 07:10:46;;;;;;;;;18.50;18.50;;;;;21.39;59.73;101537.25;4941495;28;45311;-77
2021/08/12 07:13:12;;;;;;;;;23.75;21.25;;;;;21.40;59.58;101522.91;4941751;28;46348;-77
2021/08/12 07:15:37;;;;;;;;;17.00;15.25;;;;;21.43;59.32;101512.06;4949437;28;45245;-78
2021/08/12 07:18:14;;;;;;;;;16.75;15.25;;;;;21.50;59.24;101524.31;4945998;28;45429;-78
2021/08/12 07:20:42;;;;;;;;;17.75;16.50;;;;;21.47;58.97;101519.94;4942824;28;45294;-77
2021/08/12 07:23:10;;;;;;;;;16.75;16.75;;;;;21.52;59.15;101517.97;4942671;28;46278;-77
2021/08/12 07:25:50;;;;;;;;;;;;;;;;;;;;;
2021/08/12 07:28:18;;;;;;;;;18.25;17.50;;;;;21.63;59.09;101520.25;4942237;28;68160;-77
2021/08/12 07:30:53;;;;;;;;;25.00;20.75;;;;;21.66;58.45;101512.09;4925531;28;45542;-77
2021/08/12 07:33:18;;;;;;;;;18.50;17.50;;;;;21.66;58.79;101506.72;4925353;28;47234;-77
2021/08/12 07:35:55;;;;;;;;;17.50;16.25;;;;;21.77;58.89;101515.25;4934953;28;45398;-77
2021/08/12 07:38:29;;;;;;;;;15.75;15.00;;;;;21.87;58.64;101522.94;4941170;28;45676;-77
2021/08/12 07:40:59;;;;;;;;;24.00;21.00;;;;;21.95;58.23;101523.53;4939600;28;45347;-78
2021/08/12 07:43:30;;;;;;;;;19.50;18.50;;;;;22.08;58.25;101526.56;4942244;28;45410;-78
2021/08/12 07:46:00;;;;;;;;;22.25;18.50;;;;;22.19;58.27;101522.59;4941016;28;45209;-78
2021/08/12 07:48:28;;;;;;;;;19.00;19.00;;;;;22.33;57.72;101522.03;4942948;28;45389;-78
2021/08/12 07:50:55;;;;;;;;;22.25;18.75;;;;;22.48;57.49;101517.88;4942200;28;45463;-77
2021/08/12 07:53:26;;;;;;;;;19.00;18.00;;;;;22.53;57.16;101515.84;4942397;28;45379;-78
2021/08/12 07:55:52;;;;;;;;;19.00;18.50;;;;;22.60;57.12;101519.16;4940822;28;45600;-78
2021/08/12 07:58:27;;;;;;;;;17.00;17.00;;;;;22.61;56.86;101510.16;4942390;28;45363;-78
2021/08/12 08:01:00;;;;;;;;;18.00;16.00;;;;;22.73;56.80;101514.16;4940987;28;45461;-77
2021/08/12 08:03:30;;;;;;;;;17.00;17.00;;;;;22.80;56.97;101505.78;4942539;28;46346;-77
2021/08/12 08:06:01;;;;;;;;;13.00;12.00;;;;;22.88;56.44;101502.72;4929719;28;45449;-77
2021/08/12 08:08:29;;;;;;;;;14.50;13.75;;;;;22.99;56.29;101499.63;4942524;28;45382;-79
2021/08/12 08:10:57;;;;;;;;;23.25;22.00;;;;;23.07;56.30;101497.50;4941524;28;45193;-78
2021/08/12 08:13:22;;;;;;;;;16.75;16.50;;;;;23.20;56.04;101511.25;4940819;28;45994;-77
2021/08/12 08:15:52;;;;;;;;;13.00;13.00;;;;;23.26;55.36;101495.75;4942277;28;45218;-77
2021/08/12 08:18:21;;;;;;;;;14.75;14.00;;;;;23.32;55.57;101490.06;4941119;28;45457;-77
2021/08/12 08:20:48;;;;;;;;;14.25;13.25;;;;;23.46;55.53;101505.56;4929393;28;45462;-78
2021/08/12 08:23:14;;;;;;;;;15.75;13.00;;;;;23.55;54.88;101501.63;4942038;28;45518;-77
2021/08/12 08:25:44;;;;;;;;;15.75;15.00;;;;;23.60;54.55;101504.94;4941778;28;45361;-78
2021/08/12 08:28:15;;;;;;;;;13.75;13.50;;;;;23.60;54.34;101504.06;4924846;28;45278;-79
2021/08/12 08:30:45;;;;;;;;;13.00;12.50;;;;;23.66;54.55;101501.13;4941886;28;45583;-80
2021/08/12 08:33:15;;;;;;;;;12.50;11.25;;;;;23.72;54.23;101508.94;4941822;28;46416;-80
2021/08/12 08:35:41;;;;;;;;;11.75;11.75;;;;;23.74;54.02;101502.53;4941841;28;45399;-84
2021/08/12 08:38:13;;;;;;;;;14.50;12.25;;;;;23.85;53.49;101511.91;4942278;28;45370;-82
2021/08/12 08:40:49;;;;;;;;;15.00;12.25;;;;;23.91;54.02;101511.63;4941585;28;45440;-85
2021/08/12 08:43:22;;;;;;;;;19.00;16.50;;;;;24.01;53.66;101512.06;4925829;28;46788;-85
2021/08/12 08:46:01;;;;;;;;;16.00;14.00;;;;;24.11;53.65;101505.28;4939515;28;45409;-87
2021/08/12 08:48:33;;;;;;;;;11.33;11.00;;;;;24.24;53.28;101506.44;4923899;28;45363;-85
2021/08/12 08:51:01;;;;;;;;;13.00;11.67;;;;;24.33;53.01;101497.91;4924571;28;45505;-83
2021/08/12 08:53:30;;;;;;;;;13.25;11.00;;;;;24.45;52.11;101499.16;4940898;28;47316;-84
2021/08/12 08:56:01;;;;;;;;;16.50;14.00;;;;;24.48;52.15;101503.50;4939921;28;45801;-85
2021/08/12 08:58:30;;;;;;;;;13.00;11.50;;;;;24.51;52.36;101511.44;4943282;28;45418;-85
2021/08/12 09:01:10;;;;;;;;;12.25;12.25;;;;;24.62;52.51;101511.78;4945429;28;45536;-85
2021/08/12 09:03:36;;;;;;;;;12.75;12.75;;;;;24.71;52.29;101513.13;4947311;28;45643;-88
2021/08/12 09:06:11;;;;;;;;;14.75;11.50;;;;;24.81;51.74;101509.91;4941014;28;45466;-86
2021/08/12 09:08:49;;;;;;;;;13.00;10.67;;;;;24.93;51.91;101516.47;4940608;28;45544;-90
2021/08/12 09:11:27;;;;;;;;;12.67;12.67;;;;;25.01;50.96;101522.31;4939932;28;45532;-85
2021/08/12 09:13:55;;;;;;;;;13.67;13.67;;;;;25.08;50.94;101528.28;4939696;28;48548;-91
2021/08/12 09:16:38;;;;;;;;;13.33;13.00;;;;;25.15;51.12;101521.63;4951960;28;45357;-90
2021/08/12 09:19:27;;;;;;;;;14.00;11.25;;;;;25.25;50.79;101528.28;4928149;28;45411;-85
2021/08/12 09:22:01;;;;;;;;;10.00;8.67;;;;;25.35;50.46;101525.13;4958212;28;45408;-85
2021/08/12 09:24:47;;;;;;;;;11.67;11.33;;;;;25.40;50.58;101521.22;4939291;28;48594;-86
2021/08/12 09:27:28;;;;;;;;;11.67;11.67;;;;;25.55;49.74;101521.34;4928925;28;45380;-88
2021/08/12 09:30:15;;;;;;;;;12.33;11.00;;;;;25.58;49.50;101513.09;4946009;28;45518;-90
2021/08/12 09:32:55;;;;;;;;;11.33;10.33;;;;;25.69;49.28;101516.09;4936604;28;45370;-90
2021/08/12 09:35:29;;;;;;;;;13.00;10.67;;;;;25.73;49.34;101515.81;4947453;28;47613;-93
2021/08/12 09:38:16;;;;;;;;;14.00;13.75;;;;;25.85;49.08;101527.81;4956671;28;45433;-88
2021/08/12 09:40:43;;;;;;;;;10.67;9.67;;;;;25.96;49.56;101527.22;4941762;28;45242;-86
2021/08/12 09:43:20;;;;;;;;;13.25;11.25;;;;;26.05;49.40;101529.38;4940823;28;45685;-87
2021/08/12 09:45:47;;;;;;;;;14.00;12.67;;;;;26.14;48.39;101514.50;4941284;28;45564;-88
2021/08/12 09:48:18;;;;;;;;;13.00;11.67;;;;;26.20;48.61;101516.00;4928824;28;45347;-87
2021/08/12 09:51:06;;;;;;;;;12.33;12.00;;;;;26.25;48.58;101514.78;4941752;28;45402;-88
2021/08/12 09:53:34;;;;;;;;;15.00;13.00;;;;;26.34;48.05;101516.94;4951876;28;45468;-86
2021/08/12 09:56:12;;;;;;;;;12.67;12.67;;;;;26.40;47.73;101515.69;4942991;28;46225;-87
2021/08/12 09:58:45;;;;;;;;;11.67;10.00;;;;;26.44;48.12;101509.19;4940721;28;45302;-89
2021/08/12 10:01:27;;;;;;;;;11.00;9.00;;;;;26.50;47.58;101500.72;4936500;28;45400;-89
2021/08/12 10:04:01;;;;;;;;;10.00;10.00;;;;;26.63;47.38;101505.44;4931093;28;45424;-89
2021/08/12 10:06:40;;;;;;;;;10.00;10.00;;;;;26.71;47.51;101497.75;4942987;28;46998;-84
2021/08/12 10:09:20;;;;;;;;;12.50;12.50;;;;;26.84;47.06;101502.31;4941376;28;45243;-86
2021/08/12 10:12:09;;;;;;;;;;;;;;;;;;;;;
2021/08/12 10:14:40;;;;;;;;;12.67;12.00;;;;;27.00;46.89;101507.66;4939545;28;72801;-84
2021/08/12 10:17:08;;;;;;;;;11.00;10.00;;;;;27.04;46.52;101494.81;4939000;28;46431;-83
2021/08/12 10:19:43;;;;;;;;;12.75;11.50;;;;;27.06;46.18;101495.63;4940782;28;45453;-83
2021/08/12 10:22:17;;;;;;;;;13.33;12.33;;;;;27.06;46.19;101490.22;4940468;28;45503;-83
2021/08/12 10:24:50;;;;;;;;;13.25;13.25;;;;;27.09;46.41;101498.13;4922682;28;45539;-83
2021/08/12 10:27:21;;;;;;;;;12.00;11.00;;;;;27.17;46.10;101493.16;4910464;28;47112;-83
2021/08/12 10:30:03;;;;;;;;;12.00;12.00;;;;;27.27;46.13;101490.75;4940133;28;45318;-83
2021/08/12 10:32:36;;;;;;;;;11.67;9.00;;;;;27.38;46.30;101493.66;4940174;28;45454;-84
2021/08/12 10:35:10;;;;;;;;;12.67;11.67;;;;;27.48;46.00;101496.66;4946758;28;45406;-82
2021/08/12 10:37:40;;;;;;;;;13.00;11.00;;;;;27.53;45.57;101489.09;4943238;28;45440;-86
2021/08/12 10:40:12;;;;;;;;;12.25;11.00;;;;;27.63;45.21;101486.69;4941729;28;45291;-84
2021/08/12 10:42:44;;;;;;;;;12.00;11.00;;;;;27.71;44.28;101479.81;4945364;28;45484;-81
2021/08/12 10:45:28;;;;;;;;;14.00;12.67;;;;;27.82;45.14;101489.97;4943585;28;45424;-83
2021/08/12 10:48:01;;;;;;;;;11.67;10.67;;;;;28.01;44.82;101495.06;4943232;28;46205;-82
2021/08/12 10:50:39;;;;;;;;;10.00;9.00;;;;;28.10;44.74;101497.19;4942266;28;46106;-81
2021/08/12 10:53:34;;;;;;;;;11.67;10.67;;;;;28.18;44.19;101496.69;4930861;28;45421;-80
2021/08/12 10:56:08;;;;;;;;;11.00;11.00;;;;;28.26;44.16;101491.63;4942763;28;45505;-80
2021/08/12 10:58:44;;;;;;;;;10.67;10.33;;;;;28.37;44.09;101493.63;4943145;28;45278;-82
2021/08/12 11:01:15;;;;;;;;;8.67;8.67;;;;;28.50;43.48;101485.59;4942032;28;45786;-82
2021/08/12 11:03:53;;;;;;;;;11.00;9.00;;;;;28.65;43.53;101498.06;4943310;28;45399;-82
2021/08/12 11:06:33;;;;;;;;;10.75;10.75;;;;;28.73;42.10;101484.88;4944950;28;45446;-83
2021/08/12 11:09:05;;;;;;;;;8.33;8.33;;;;;28.81;42.27;101489.75;4962364;28;46140;-83
2021/08/12 11:11:30;;;;;;;;;7.67;7.67;;;;;28.86;43.14;101484.91;4944656;28;45375;-82
2021/08/12 11:14:00;;;;;;;;;10.33;9.33;;;;;28.94;42.24;101493.38;4944940;28;45406;-82
2021/08/12 11:16:52;;;;;;;;;11.33;10.00;;;;;29.00;41.35;101495.69;4960406;28;45577;-82
2021/08/12 11:19:38;;;;;;;;;10.67;9.33;;;;;29.11;42.07;101485.94;4943118;28;46681;-79
2021/08/12 11:22:32;;;;;;;;;11.67;11.00;;;;;29.17;41.98;101489.09;4942976;28;45441;-80
2021/08/12 11:25:06;;;;;;;;;13.25;11.50;;;;;29.20;40.94;101485.31;4942549;28;45366;-82
2021/08/12 11:27:43;;;;;;;;;10.67;10.00;;;;;29.30;41.99;101471.94;4942936;28;45251;-82
2021/08/12 11:30:37;;;;;;;;;12.00;11.33;;;;;29.36;41.79;101464.25;4925307;28;47279;-80
2021/08/12 11:33:27;;;;;;;;;9.33;8.00;;;;;29.41;41.01;101475.63;4942551;28;45421;-81